createdAt,value
2023-01-25T00:01:56.563Z,2.97
2023-01-25T00:06:59.457Z,2.73
2023-01-25T00:12:02.164Z,1.10
2023-01-25T00:17:05.004Z,0.50
2023-01-25T00:22:07.885Z,2.42
2023-01-25T00:27:10.641Z,2.22
2023-01-25T00:32:13.503Z,2.57
2023-01-25T00:37:29.269Z,1.42
2023-01-25T00:42:33.391Z,2.27
2023-01-25T00:47:36.169Z,2.72
2023-01-25T00:52:40.543Z,2.33
2023-01-25T00:57:43.228Z,2.50
2023-01-25T01:02:46.008Z,1.58
2023-01-25T01:07:50.681Z,1.90
2023-01-25T01:12:55.324Z,1.98
2023-01-25T01:17:58.033Z,1.67
2023-01-25T01:23:01.078Z,2.17
2023-01-25T01:28:04.146Z,2.17
2023-01-25T01:33:07.306Z,1.40
2023-01-25T01:38:09.962Z,1.88
2023-01-25T01:43:24.327Z,2.38
2023-01-25T01:48:34.545Z,1.93
2023-01-25T01:53:40.214Z,1.58
2023-01-25T01:58:44.581Z,1.40
2023-01-25T02:03:48.948Z,1.88
2023-01-25T02:08:53.359Z,2.22
2023-01-25T02:13:58.442Z,2.20
2023-01-25T02:19:03.875Z,2.33
2023-01-25T02:24:18.816Z,1.97
2023-01-25T02:29:24.430Z,0.57
2023-01-25T02:34:28.275Z,2.08
2023-01-25T02:39:31.393Z,2.07
2023-01-25T02:44:35.018Z,2.47
2023-01-25T02:49:39.511Z,2.03
2023-01-25T02:54:43.873Z,2.10
2023-01-25T02:59:46.795Z,2.97
2023-01-25T03:04:51.540Z,3.67
2023-01-25T03:09:54.313Z,3.47
2023-01-25T03:14:57.188Z,3.33
2023-01-25T03:20:00.046Z,4.22
2023-01-25T03:25:03.264Z,3.17
2023-01-25T03:30:07.285Z,2.90
2023-01-25T03:35:10.900Z,3.22
2023-01-25T03:40:14.493Z,3.17
2023-01-25T03:45:20.999Z,3.13
2023-01-25T03:50:24.085Z,3.33
2023-01-25T03:55:26.861Z,2.93
2023-01-25T04:00:29.788Z,3.38
2023-01-25T04:05:36.309Z,3.67
2023-01-25T04:10:39.516Z,4.03
2023-01-25T04:15:43.504Z,4.43
2023-01-25T04:20:57.473Z,4.30
2023-01-25T04:26:03.478Z,3.97
2023-01-25T04:31:06.621Z,3.90
2023-01-25T04:36:14.753Z,4.38
2023-01-25T04:41:18.761Z,4.05
2023-01-25T04:46:21.610Z,3.77
2023-01-25T04:51:24.511Z,4.75
2023-01-25T04:56:27.613Z,6.60
2023-01-25T05:01:33.749Z,7.07
2023-01-25T05:06:40.563Z,7.53
2023-01-25T05:11:43.684Z,5.73
2023-01-25T05:16:54.011Z,5.95
2023-01-25T05:22:00.645Z,4.80
2023-01-25T05:27:10.066Z,5.68
2023-01-25T05:32:32.716Z,5.88
2023-01-25T05:37:35.741Z,5.37
2023-01-25T05:42:42.532Z,5.38
2023-01-25T05:47:54.594Z,4.17
2023-01-25T05:52:57.270Z,4.57
2023-01-25T05:58:00.429Z,4.57
2023-01-25T06:03:03.977Z,4.17
2023-01-25T06:08:09.706Z,4.35
2023-01-25T06:13:23.279Z,5.17
2023-01-25T06:18:26.143Z,3.97
2023-01-25T06:23:56.835Z,4.35
2023-01-25T06:28:59.798Z,4.53
2023-01-25T06:34:04.822Z,3.45
2023-01-25T06:39:07.968Z,3.57
2023-01-25T06:44:10.725Z,4.00
2023-01-25T06:49:13.512Z,4.05
2023-01-25T06:54:16.714Z,3.60
2023-01-25T06:59:19.484Z,5.30
2023-01-25T07:04:22.302Z,5.33
2023-01-25T07:09:25.165Z,5.15
2023-01-25T07:14:28.235Z,4.57
2023-01-25T07:19:31.173Z,4.97
2023-01-25T07:24:34.037Z,4.30
2023-01-25T07:29:36.792Z,5.67
2023-01-25T07:34:39.556Z,4.25
2023-01-25T07:39:48.420Z,5.05
2023-01-25T07:44:51.717Z,6.13
2023-01-25T07:49:55.354Z,5.97
2023-01-25T07:54:58.248Z,6.23
2023-01-25T08:00:01.087Z,6.00
2023-01-25T08:05:04.219Z,5.28
2023-01-25T08:10:07.580Z,5.30
2023-01-25T08:15:11.589Z,5.43
2023-01-25T08:20:14.746Z,5.43
2023-01-25T08:25:17.541Z,5.57
2023-01-25T08:30:20.348Z,8.73
2023-01-25T08:35:23.165Z,4.57
2023-01-25T08:40:25.956Z,5.85
2023-01-25T08:45:28.645Z,5.10
2023-01-25T08:50:31.459Z,4.28
2023-01-25T08:55:36.544Z,5.13
2023-01-25T09:00:41.227Z,4.90
2023-01-25T09:05:44.016Z,4.15
2023-01-25T09:10:47.008Z,5.07
2023-01-25T09:15:49.815Z,4.82
2023-01-25T09:20:52.581Z,3.47
2023-01-25T09:26:02.146Z,3.90
2023-01-25T09:31:20.947Z,3.67
2023-01-25T09:36:54.597Z,4.27
2023-01-25T09:42:41.538Z,4.63
2023-01-25T09:48:21.266Z,4.18
2023-01-25T09:53:49.461Z,5.77
2023-01-25T09:59:16.530Z,3.67
2023-01-25T10:04:39.817Z,4.03
2023-01-25T10:09:52.044Z,3.15
2023-01-25T10:14:55.217Z,3.90
2023-01-25T10:20:04.760Z,3.93
2023-01-25T10:25:20.136Z,4.28
2023-01-25T10:30:35.077Z,3.97
2023-01-25T10:35:45.748Z,4.35
2023-01-25T10:41:02.512Z,3.55
2023-01-25T10:46:17.961Z,4.93
2023-01-25T10:51:33.081Z,1.73
2023-01-25T10:56:39.858Z,3.80
2023-01-25T11:01:43.362Z,3.22
2023-01-25T11:06:52.096Z,3.00
2023-01-25T11:12:07.813Z,3.77
2023-01-25T11:17:28.206Z,4.38
2023-01-25T11:22:31.087Z,3.00
2023-01-25T11:27:34.428Z,3.10
2023-01-25T11:32:40.007Z,3.03
2023-01-25T11:37:51.968Z,3.70
2023-01-25T11:43:13.157Z,3.05
2023-01-25T11:48:48.294Z,2.43
2023-01-25T11:54:29.500Z,2.47
2023-01-25T11:59:56.991Z,2.72
2023-01-25T12:05:34.156Z,2.50
2023-01-25T12:10:58.413Z,2.63
2023-01-25T12:16:21.665Z,2.50
2023-01-25T12:21:43.151Z,2.38
2023-01-25T12:26:52.894Z,2.92
2023-01-25T12:32:11.915Z,2.13
2023-01-25T12:37:33.242Z,2.25
2023-01-25T12:42:47.234Z,1.83
2023-01-25T12:47:59.246Z,1.98
2023-01-25T12:53:11.096Z,1.90
2023-01-25T12:58:53.111Z,1.60
2023-01-25T13:04:24.882Z,2.13
2023-01-25T13:10:05.362Z,2.40
2023-01-25T13:15:44.558Z,1.83
2023-01-25T13:20:59.145Z,1.42
2023-01-25T13:26:31.413Z,1.97
2023-01-25T13:31:51.506Z,2.10
2023-01-25T13:36:56.684Z,1.30
2023-01-25T13:42:06.227Z,1.10
2023-01-25T13:47:13.090Z,2.42
2023-01-25T13:52:19.742Z,2.50
2023-01-25T13:57:32.036Z,1.25
2023-01-25T14:02:36.048Z,2.17
2023-01-25T14:07:39.705Z,2.80
2023-01-25T14:12:44.968Z,2.33
2023-01-25T14:18:04.343Z,1.90
2023-01-25T14:23:30.790Z,1.88
2023-01-25T14:28:33.865Z,2.77
2023-01-25T14:33:40.607Z,2.72
2023-01-25T14:38:44.038Z,2.03
2023-01-25T14:43:53.488Z,3.60
2023-01-25T14:49:14.689Z,3.65
2023-01-25T14:54:23.713Z,3.07
2023-01-25T14:59:26.521Z,3.13
2023-01-25T15:04:29.773Z,3.78
2023-01-25T15:09:33.469Z,2.57
2023-01-25T15:14:49.146Z,3.10
2023-01-25T15:19:55.311Z,2.60
2023-01-25T15:24:58.806Z,4.13
2023-01-25T15:30:01.637Z,3.90
2023-01-25T15:35:05.274Z,3.17
2023-01-25T15:40:09.516Z,2.50
2023-01-25T15:45:13.308Z,2.83
2023-01-25T15:50:19.627Z,4.05
2023-01-25T15:55:24.295Z,2.55
2023-01-25T16:00:27.672Z,2.03
2023-01-25T16:05:30.584Z,2.88
2023-01-25T16:10:34.814Z,2.73
2023-01-25T16:15:39.026Z,3.15
2023-01-25T16:20:43.900Z,2.63
2023-01-25T16:25:48.839Z,3.87
2023-01-25T16:30:52.271Z,3.13
2023-01-25T16:36:25.954Z,3.53
2023-01-25T16:41:28.863Z,3.47
2023-01-25T16:46:31.923Z,3.83
2023-01-25T16:51:34.844Z,3.40
2023-01-25T16:56:39.322Z,3.40
2023-01-25T17:01:42.718Z,3.80
2023-01-25T17:06:48.360Z,1.17
2023-01-25T17:11:51.052Z,3.42
2023-01-25T17:16:54.787Z,3.37
2023-01-25T17:21:59.433Z,3.03
2023-01-25T17:27:02.978Z,2.53
2023-01-25T17:32:06.218Z,3.20
2023-01-25T17:37:09.258Z,3.22
2023-01-25T17:42:14.414Z,3.63
2023-01-25T17:47:17.352Z,5.15
2023-01-25T17:52:20.160Z,4.60
2023-01-25T17:57:24.899Z,4.72
2023-01-25T18:02:27.893Z,4.22
2023-01-25T18:07:30.869Z,2.43
2023-01-25T18:12:34.257Z,4.55
2023-01-25T18:17:39.035Z,4.73
2023-01-25T18:22:44.453Z,4.72
2023-01-25T18:27:47.252Z,6.45
2023-01-25T18:32:50.264Z,5.73
2023-01-25T18:37:53.244Z,4.88
2023-01-25T18:42:56.105Z,3.90
2023-01-25T18:48:00.823Z,5.55
2023-01-25T18:53:03.873Z,5.60
2023-01-25T18:58:07.658Z,5.17
2023-01-25T19:03:10.404Z,5.85
2023-01-25T19:08:15.415Z,5.60
2023-01-25T19:13:18.342Z,4.10
2023-01-25T19:18:21.625Z,4.35
2023-01-25T19:23:24.543Z,3.27
2023-01-25T19:28:27.962Z,4.63
2023-01-25T19:33:30.786Z,6.60
2023-01-25T19:38:37.791Z,6.15
2023-01-25T19:43:44.719Z,7.70
2023-01-25T19:48:50.215Z,4.50
2023-01-25T19:54:08.652Z,6.78
2023-01-25T19:59:16.951Z,6.10
2023-01-25T20:04:22.361Z,1.60
2023-01-25T20:09:28.359Z,3.15
2023-01-25T20:14:31.218Z,5.87
2023-01-25T20:19:35.463Z,7.18
2023-01-25T20:24:38.257Z,3.97
2023-01-25T20:29:41.255Z,4.72
2023-01-25T20:34:44.203Z,5.03
2023-01-25T20:39:47.099Z,4.57
2023-01-25T20:44:50.087Z,1.95
2023-01-25T20:49:53.188Z,1.97
2023-01-25T20:54:56.663Z,4.57
2023-01-25T20:59:59.807Z,7.15
2023-01-25T21:05:02.727Z,3.30
2023-01-25T21:10:06.094Z,6.15
2023-01-25T21:15:10.545Z,5.50
2023-01-25T21:20:13.776Z,6.45
2023-01-25T21:25:16.684Z,5.57
2023-01-25T21:30:21.838Z,3.87
2023-01-25T21:35:26.761Z,5.53
2023-01-25T21:40:30.779Z,5.87
2023-01-25T21:45:52.340Z,2.47
2023-01-25T21:51:16.717Z,3.47
2023-01-25T21:56:19.593Z,6.07
2023-01-25T22:01:23.437Z,5.82
2023-01-25T22:06:27.211Z,6.23
2023-01-25T22:11:30.128Z,6.55
2023-01-25T22:16:33.344Z,6.50
2023-01-25T22:21:36.621Z,5.43
2023-01-25T22:27:24.067Z,6.50
2023-01-25T22:32:27.016Z,5.37
2023-01-25T22:37:29.919Z,5.65
2023-01-25T22:42:32.731Z,3.28
2023-01-25T22:47:35.439Z,5.67
2023-01-25T22:52:38.230Z,5.47
2023-01-25T22:57:40.904Z,3.77
2023-01-25T23:02:43.615Z,5.85
2023-01-25T23:07:46.370Z,5.57
2023-01-25T23:12:49.186Z,5.83
2023-01-25T23:18:10.316Z,5.50
2023-01-25T23:23:13.077Z,5.80
2023-01-25T23:28:16.199Z,5.22
2023-01-25T23:33:18.952Z,5.03
2023-01-25T23:38:21.947Z,5.53
2023-01-25T23:43:24.691Z,6.72
2023-01-25T23:48:27.557Z,5.57
2023-01-25T23:53:33.515Z,6.00
2023-01-25T23:58:38.633Z,4.93
